createdAt,value
2023-05-09T00:01:15.042Z,98961.59
2023-05-09T00:03:44.451Z,98960.84
2023-05-09T00:06:13.393Z,98967.78
2023-05-09T00:08:41.513Z,98961.13
2023-05-09T00:11:11.785Z,98947.13
2023-05-09T00:13:44.165Z,98957.09
2023-05-09T00:16:12.024Z,98954.31
2023-05-09T00:18:42.263Z,98954.50
2023-05-09T00:21:12.072Z,98947.47
2023-05-09T00:23:40.027Z,98949.13
2023-05-09T00:26:07.996Z,98945.88
2023-05-09T00:28:36.236Z,98945.63
2023-05-09T00:31:04.955Z,98940.34
2023-05-09T00:33:32.804Z,98933.53
2023-05-09T00:36:00.753Z,98922.75
2023-05-09T00:38:30.855Z,98924.00
2023-05-09T00:40:58.805Z,98932.00
2023-05-09T00:43:26.626Z,98921.78
2023-05-09T00:45:54.723Z,98926.84
2023-05-09T00:48:22.699Z,98920.97
2023-05-09T00:50:52.956Z,98917.19
2023-05-09T00:53:20.980Z,98917.19
2023-05-09T00:55:53.420Z,98908.22
2023-05-09T00:58:22.044Z,98908.91
2023-05-09T01:00:49.906Z,98910.47
2023-05-09T01:03:18.051Z,98911.56
2023-05-09T01:05:59.428Z,98908.63
2023-05-09T01:08:45.952Z,98900.19
2023-05-09T01:11:23.871Z,98900.47
2023-05-09T01:14:00.998Z,98894.03
2023-05-09T01:16:36.893Z,98894.50
2023-05-09T01:19:22.308Z,98895.75
2023-05-09T01:21:51.267Z,98895.03
2023-05-09T01:24:33.172Z,98896.56
2023-05-09T01:27:22.303Z,98893.38
2023-05-09T01:29:57.956Z,98895.03
2023-05-09T01:32:28.137Z,98901.34
2023-05-09T01:34:57.864Z,98902.19
2023-05-09T01:37:30.662Z,98893.19
2023-05-09T01:40:01.578Z,98897.97
2023-05-09T01:42:40.489Z,98898.13
2023-05-09T01:45:11.829Z,98890.56
2023-05-09T01:47:43.525Z,98887.22
2023-05-09T01:50:13.171Z,98895.31
2023-05-09T01:52:43.785Z,98896.16
2023-05-09T01:55:13.301Z,98889.81
2023-05-09T01:57:41.656Z,98879.06
2023-05-09T02:00:14.340Z,98880.72
2023-05-09T02:02:43.215Z,98870.94
2023-05-09T02:05:12.984Z,98883.75
2023-05-09T02:07:42.751Z,98882.31
2023-05-09T02:10:11.357Z,98882.03
2023-05-09T02:12:39.412Z,98883.88
2023-05-09T02:15:08.884Z,98879.59
2023-05-09T02:17:43.272Z,98881.66
2023-05-09T02:20:12.162Z,98891.81
2023-05-09T02:22:41.500Z,98891.41
2023-05-09T02:25:10.982Z,98894.69
2023-05-09T02:27:41.346Z,98891.63
2023-05-09T02:30:13.091Z,98884.66
2023-05-09T02:32:44.286Z,98886.97
2023-05-09T02:35:16.357Z,98883.66
2023-05-09T02:37:45.531Z,98886.72
2023-05-09T02:40:14.430Z,98882.53
2023-05-09T02:42:42.344Z,98876.06
2023-05-09T02:45:12.955Z,98870.91
2023-05-09T02:47:42.349Z,98871.03
2023-05-09T02:50:10.582Z,98861.44
2023-05-09T02:52:39.659Z,98861.72
2023-05-09T02:55:08.627Z,98855.00
2023-05-09T02:57:39.810Z,98860.66
2023-05-09T03:00:09.672Z,98848.00
2023-05-09T03:02:37.977Z,98844.09
2023-05-09T03:05:10.595Z,98835.00
2023-05-09T03:07:38.545Z,98837.53
2023-05-09T03:10:07.807Z,98834.72
2023-05-09T03:12:35.663Z,98846.91
2023-05-09T03:15:03.651Z,98853.50
2023-05-09T03:17:31.559Z,98847.47
2023-05-09T03:20:01.012Z,98845.97
2023-05-09T03:22:31.616Z,98843.84
2023-05-09T03:25:04.075Z,98847.75
2023-05-09T03:27:31.889Z,98848.97
2023-05-09T03:29:59.747Z,98839.63
2023-05-09T03:32:29.825Z,98831.19
2023-05-09T03:34:57.745Z,98824.16
2023-05-09T03:37:27.345Z,98832.03
2023-05-09T03:39:56.830Z,98824.34
2023-05-09T03:42:24.674Z,98831.78
2023-05-09T03:44:56.927Z,98825.91
2023-05-09T03:47:24.924Z,98826.59
2023-05-09T03:49:53.545Z,98823.94
2023-05-09T03:52:23.518Z,98822.25
2023-05-09T03:54:52.002Z,98824.22
2023-05-09T03:57:23.653Z,98821.84
2023-05-09T03:59:53.925Z,98827.00
2023-05-09T04:02:24.649Z,98827.72
2023-05-09T04:04:53.019Z,98828.97
2023-05-09T04:07:23.156Z,98826.19
2023-05-09T04:09:51.020Z,98826.47
2023-05-09T04:12:18.838Z,98825.59
2023-05-09T04:14:49.006Z,98822.28
2023-05-09T04:17:18.001Z,98822.28
2023-05-09T04:19:46.515Z,98825.06
2023-05-09T04:22:14.380Z,98823.38
2023-05-09T04:24:42.626Z,98828.97
2023-05-09T04:27:10.539Z,98823.84
2023-05-09T04:29:43.254Z,98827.22
2023-05-09T04:32:12.682Z,98824.13
2023-05-09T04:34:40.806Z,98837.06
2023-05-09T04:37:16.037Z,98836.34
2023-05-09T04:39:54.981Z,98832.44
2023-05-09T04:42:36.096Z,98837.81
2023-05-09T04:45:04.193Z,98835.06
2023-05-09T04:47:33.362Z,98837.66
2023-05-09T04:50:01.266Z,98837.53
2023-05-09T04:52:29.156Z,98831.22
2023-05-09T04:54:57.614Z,98835.84
2023-05-09T04:57:28.971Z,98836.28
2023-05-09T04:59:59.120Z,98836.56
2023-05-09T05:02:26.921Z,98834.19
2023-05-09T05:05:10.152Z,98836.41
2023-05-09T05:07:40.693Z,98836.00
2023-05-09T05:10:10.476Z,98823.94
2023-05-09T05:12:40.169Z,98821.13
2023-05-09T05:15:12.036Z,98824.25
2023-05-09T05:17:40.613Z,98835.03
2023-05-09T05:20:12.078Z,98836.53
2023-05-09T05:22:45.074Z,98824.88
2023-05-09T05:25:14.256Z,98829.91
2023-05-09T05:27:43.820Z,98828.72
2023-05-09T05:30:15.669Z,98822.38
2023-05-09T05:32:44.690Z,98825.06
2023-05-09T05:35:15.643Z,98818.00
2023-05-09T05:37:44.276Z,98816.81
2023-05-09T05:40:12.954Z,98814.44
2023-05-09T05:42:46.614Z,98813.47
2023-05-09T05:45:14.869Z,98814.94
2023-05-09T05:47:47.317Z,98813.41
2023-05-09T05:50:19.714Z,98809.53
2023-05-09T05:52:48.360Z,98807.81
2023-05-09T05:55:18.719Z,98807.72
2023-05-09T05:57:47.685Z,98809.63
2023-05-09T06:00:18.175Z,98805.41
2023-05-09T06:02:50.651Z,98814.81
2023-05-09T06:05:37.056Z,98810.31
2023-05-09T06:08:08.120Z,98805.84
2023-05-09T06:10:39.926Z,98810.84
2023-05-09T06:13:08.144Z,98803.50
2023-05-09T06:15:38.386Z,98796.47
2023-05-09T06:18:07.066Z,98792.63
2023-05-09T06:20:36.818Z,98795.66
2023-05-09T06:23:04.604Z,98784.53
2023-05-09T06:25:33.241Z,98782.78
2023-05-09T06:28:01.300Z,98784.91
2023-05-09T06:30:29.245Z,98786.59
2023-05-09T06:32:58.212Z,98777.81
2023-05-09T06:35:28.029Z,98781.19
2023-05-09T06:37:57.277Z,98783.00
2023-05-09T06:40:27.112Z,98780.72
2023-05-09T06:42:55.478Z,98774.84
2023-05-09T06:45:24.046Z,98769.00
2023-05-09T06:47:51.961Z,98774.72
2023-05-09T06:50:19.861Z,98770.06
2023-05-09T06:52:48.323Z,98772.63
2023-05-09T06:55:17.797Z,98769.00
2023-05-09T06:57:45.720Z,98772.13
2023-05-09T07:00:15.030Z,98764.47
2023-05-09T07:02:43.154Z,98759.38
2023-05-09T07:05:11.502Z,98753.13
2023-05-09T07:07:39.408Z,98753.16
2023-05-09T07:10:11.955Z,98755.75
2023-05-09T07:12:41.957Z,98748.25
2023-05-09T07:15:11.185Z,98753.25
2023-05-09T07:17:39.266Z,98743.50
2023-05-09T07:20:08.346Z,98741.22
2023-05-09T07:22:37.446Z,98744.56
2023-05-09T07:25:08.358Z,98740.88
2023-05-09T07:27:36.817Z,98722.75
2023-05-09T07:30:09.155Z,98720.09
2023-05-09T07:32:37.056Z,98710.22
2023-05-09T07:35:05.736Z,98706.00
2023-05-09T07:37:33.621Z,98702.97
2023-05-09T07:40:01.535Z,98694.31
2023-05-09T07:42:30.276Z,98689.94
2023-05-09T07:44:59.134Z,98694.72
2023-05-09T07:47:28.533Z,98687.25
2023-05-09T07:49:56.353Z,98688.06
2023-05-09T07:52:24.095Z,98682.75
2023-05-09T07:54:51.959Z,98685.44
2023-05-09T07:57:19.731Z,98672.06
2023-05-09T07:59:47.524Z,98667.28
2023-05-09T08:02:15.326Z,98678.22
2023-05-09T08:04:44.607Z,98675.00
2023-05-09T08:07:12.507Z,98659.66
2023-05-09T08:09:40.240Z,98660.78
2023-05-09T08:12:10.177Z,98647.19
2023-05-09T08:14:37.960Z,98643.38
2023-05-09T08:17:05.874Z,98641.25
2023-05-09T08:19:33.760Z,98635.88
2023-05-09T08:22:03.110Z,98627.91
2023-05-09T08:24:31.839Z,98634.50
2023-05-09T08:26:59.919Z,98629.78
2023-05-09T08:29:28.987Z,98627.53
2023-05-09T08:31:56.905Z,98620.56
2023-05-09T08:34:24.805Z,98614.88
2023-05-09T08:36:55.363Z,98606.75
2023-05-09T08:39:24.497Z,98605.84
2023-05-09T08:41:52.937Z,98598.94
2023-05-09T08:44:21.572Z,98598.44
2023-05-09T08:46:53.203Z,98587.28
2023-05-09T08:49:21.973Z,98586.41
2023-05-09T08:51:53.087Z,98590.13
2023-05-09T08:54:22.876Z,98591.66
2023-05-09T08:56:52.471Z,98588.44
2023-05-09T08:59:23.580Z,98589.91
2023-05-09T09:01:52.336Z,98591.13
2023-05-09T09:04:20.554Z,98590.19
2023-05-09T09:06:48.918Z,98589.09
2023-05-09T09:09:20.250Z,98595.19
2023-05-09T09:11:49.044Z,98584.91
2023-05-09T09:14:25.480Z,98581.97
2023-05-09T09:16:55.676Z,98571.66
2023-05-09T09:19:26.942Z,98576.78
2023-05-09T09:21:56.084Z,98563.41
2023-05-09T09:24:24.224Z,98568.41
2023-05-09T09:26:54.525Z,98563.00
2023-05-09T09:29:24.544Z,98563.63
2023-05-09T09:31:54.840Z,98564.50
2023-05-09T09:34:24.325Z,98560.38
2023-05-09T09:36:52.236Z,98549.94
2023-05-09T09:39:21.702Z,98547.06
2023-05-09T09:41:49.832Z,98542.97
2023-05-09T09:44:19.665Z,98545.53
2023-05-09T09:46:50.484Z,98536.16
2023-05-09T09:49:19.986Z,98531.06
2023-05-09T09:51:51.945Z,98517.16
2023-05-09T09:54:20.251Z,98513.53
2023-05-09T09:56:49.411Z,98508.31
2023-05-09T09:59:18.885Z,98501.97
2023-05-09T10:01:59.317Z,98486.03
2023-05-09T10:04:29.591Z,98486.06
2023-05-09T10:06:59.287Z,98475.22
2023-05-09T10:09:28.884Z,98478.44
2023-05-09T10:11:57.982Z,98472.81
2023-05-09T10:14:27.430Z,98478.56
2023-05-09T10:16:58.427Z,98468.97
2023-05-09T10:19:29.552Z,98454.97
2023-05-09T10:21:58.828Z,98457.16
2023-05-09T10:24:30.635Z,98449.38
2023-05-09T10:27:05.353Z,98447.75
2023-05-09T10:29:36.998Z,98447.72
2023-05-09T10:32:15.919Z,98443.09
2023-05-09T10:34:48.684Z,98438.16
2023-05-09T10:37:17.736Z,98432.56
2023-05-09T10:39:45.786Z,98428.31
2023-05-09T10:42:14.176Z,98431.84
2023-05-09T10:44:42.653Z,98426.78
2023-05-09T10:47:15.579Z,98418.78
2023-05-09T10:49:44.360Z,98415.97
2023-05-09T10:52:19.437Z,98419.53
2023-05-09T10:55:02.337Z,98410.22
2023-05-09T10:57:32.529Z,98399.78
2023-05-09T11:00:01.357Z,98399.91
2023-05-09T11:02:32.760Z,98396.34
2023-05-09T11:05:18.551Z,98389.41
2023-05-09T11:07:46.652Z,98385.75
2023-05-09T11:10:18.964Z,98381.13
2023-05-09T11:12:58.500Z,98373.88
2023-05-09T11:15:27.858Z,98360.63
2023-05-09T11:18:08.849Z,98366.34
2023-05-09T11:20:37.524Z,98355.47
2023-05-09T11:23:06.917Z,98355.41
2023-05-09T11:25:37.177Z,98349.88
2023-05-09T11:28:05.439Z,98356.66
2023-05-09T11:30:39.442Z,98339.53
2023-05-09T11:33:23.254Z,98331.00
2023-05-09T11:36:20.036Z,98333.50
2023-05-09T11:38:48.801Z,98327.00
2023-05-09T11:41:17.367Z,98327.13
2023-05-09T11:43:45.558Z,98312.78
2023-05-09T11:46:13.853Z,98305.84
2023-05-09T11:48:43.178Z,98311.00
2023-05-09T11:51:18.235Z,98307.19
2023-05-09T11:53:47.164Z,98301.22
2023-05-09T11:56:15.556Z,98300.69
2023-05-09T11:58:44.105Z,98300.19
2023-05-09T12:01:15.209Z,98288.13
2023-05-09T12:03:46.027Z,98293.66
2023-05-09T12:06:18.346Z,98288.78
2023-05-09T12:08:47.074Z,98275.47
2023-05-09T12:11:15.781Z,98277.25
2023-05-09T12:13:48.416Z,98266.47
2023-05-09T12:16:17.250Z,98265.22
2023-05-09T12:18:47.733Z,98265.53
2023-05-09T12:21:15.714Z,98250.84
2023-05-09T12:23:48.948Z,98243.41
2023-05-09T12:26:18.659Z,98244.75
2023-05-09T12:28:46.809Z,98239.34
2023-05-09T12:31:14.962Z,98235.47
2023-05-09T12:33:42.954Z,98235.47
2023-05-09T12:36:15.932Z,98244.63
2023-05-09T12:38:53.606Z,98229.50
2023-05-09T12:41:35.051Z,98223.53
2023-05-09T12:44:05.488Z,98225.84
2023-05-09T12:46:34.564Z,98217.19
2023-05-09T12:49:03.525Z,98213.69
2023-05-09T12:51:32.622Z,98210.72
2023-05-09T12:54:04.388Z,98199.03
2023-05-09T12:56:35.539Z,98192.75
2023-05-09T12:59:03.391Z,98187.19
2023-05-09T13:01:31.614Z,98193.91
2023-05-09T13:04:04.034Z,98192.91
2023-05-09T13:06:36.104Z,98187.09
2023-05-09T13:09:07.814Z,98172.66
2023-05-09T13:11:37.731Z,98172.25
2023-05-09T13:14:05.707Z,98162.13
2023-05-09T13:16:34.048Z,98167.50
2023-05-09T13:19:02.448Z,98158.16
2023-05-09T13:21:30.164Z,98146.88
2023-05-09T13:23:59.289Z,98153.25
2023-05-09T13:26:27.572Z,98140.25
2023-05-09T13:28:55.345Z,98130.63
2023-05-09T13:31:23.512Z,98135.91
2023-05-09T13:33:52.105Z,98134.53
2023-05-09T13:36:20.790Z,98121.97
2023-05-09T13:38:48.990Z,98123.41
2023-05-09T13:41:23.524Z,98119.66
2023-05-09T13:43:51.608Z,98124.00
2023-05-09T13:46:19.484Z,98123.00
2023-05-09T13:48:47.849Z,98113.63
2023-05-09T13:51:18.076Z,98111.19
2023-05-09T13:53:45.881Z,98110.34
2023-05-09T13:56:13.866Z,98103.00
2023-05-09T13:58:43.001Z,98099.59
2023-05-09T14:01:11.348Z,98093.72
2023-05-09T14:03:39.453Z,98087.03
2023-05-09T14:06:09.243Z,98089.78
2023-05-09T14:08:37.162Z,98080.97
2023-05-09T14:11:05.299Z,98088.75
2023-05-09T14:13:33.104Z,98085.09
2023-05-09T14:16:02.329Z,98076.28
2023-05-09T14:18:30.213Z,98075.09
2023-05-09T14:20:58.095Z,98076.03
2023-05-09T14:23:25.922Z,98071.88
2023-05-09T14:25:53.964Z,98056.56
2023-05-09T14:28:21.883Z,98056.69
2023-05-09T14:30:49.744Z,98060.28
2023-05-09T14:33:23.363Z,98065.47
2023-05-09T14:35:51.167Z,98060.91
2023-05-09T14:38:19.154Z,98055.91
2023-05-09T14:40:47.076Z,98052.63
2023-05-09T14:43:15.732Z,98043.88
2023-05-09T14:45:43.551Z,98051.63
2023-05-09T14:48:12.249Z,98048.28
2023-05-09T14:50:42.519Z,98041.66
2023-05-09T14:53:11.255Z,98036.66
2023-05-09T14:55:39.165Z,98030.44
2023-05-09T14:58:07.756Z,98031.72
2023-05-09T15:00:37.988Z,98037.31
2023-05-09T15:03:06.010Z,98038.78
2023-05-09T15:05:33.829Z,98025.47
2023-05-09T15:08:03.056Z,98017.03
2023-05-09T15:10:31.691Z,98016.88
2023-05-09T15:13:05.917Z,98015.19
2023-05-09T15:15:33.985Z,98016.72
2023-05-09T15:18:04.406Z,98013.56
2023-05-09T15:20:32.361Z,98014.06
2023-05-09T15:23:00.363Z,98012.44
2023-05-09T15:25:29.470Z,98001.19
2023-05-09T15:27:57.397Z,98006.41
2023-05-09T15:30:27.585Z,97994.69
2023-05-09T15:32:55.558Z,97989.09
2023-05-09T15:35:23.532Z,97990.22
2023-05-09T15:37:51.460Z,97993.34
2023-05-09T15:40:21.706Z,97983.03
2023-05-09T15:42:51.100Z,97992.84
2023-05-09T15:45:20.373Z,97988.16
2023-05-09T15:47:50.969Z,97981.16
2023-05-09T15:50:21.228Z,97979.69
2023-05-09T15:52:49.754Z,97979.22
2023-05-09T15:55:18.175Z,97979.69
2023-05-09T15:57:48.181Z,97971.91
2023-05-09T16:00:18.278Z,97969.38
2023-05-09T16:02:46.267Z,97964.22
2023-05-09T16:05:14.282Z,97971.06
2023-05-09T16:07:44.942Z,97972.09
2023-05-09T16:10:13.483Z,97959.00
2023-05-09T16:12:41.533Z,97956.97
2023-05-09T16:15:10.781Z,97956.13
2023-05-09T16:17:40.060Z,97951.31
2023-05-09T16:20:09.269Z,97948.72
2023-05-09T16:22:37.586Z,97953.00
2023-05-09T16:25:07.435Z,97947.41
2023-05-09T16:27:35.915Z,97945.72
2023-05-09T16:30:03.971Z,97937.16
2023-05-09T16:32:31.966Z,97945.81
2023-05-09T16:35:04.182Z,97937.22
2023-05-09T16:37:33.503Z,97943.28
2023-05-09T16:40:04.411Z,97943.44
2023-05-09T16:42:32.516Z,97942.34
2023-05-09T16:45:00.326Z,97940.47
2023-05-09T16:47:28.727Z,97937.34
2023-05-09T16:49:56.514Z,97935.34
2023-05-09T16:52:25.751Z,97933.84
2023-05-09T16:54:54.688Z,97934.28
2023-05-09T16:57:22.762Z,97933.59
2023-05-09T16:59:53.333Z,97929.31
2023-05-09T17:02:21.275Z,97925.66
2023-05-09T17:04:49.488Z,97932.19
2023-05-09T17:07:17.417Z,97917.75
2023-05-09T17:09:48.213Z,97925.66
2023-05-09T17:12:18.081Z,97921.06
2023-05-09T17:14:46.325Z,97925.53
2023-05-09T17:17:14.759Z,97918.59
2023-05-09T17:19:42.738Z,97926.94
2023-05-09T17:22:10.961Z,97934.50
2023-05-09T17:24:38.866Z,97929.19
2023-05-09T17:27:08.139Z,97932.00
2023-05-09T17:29:36.367Z,97934.94
2023-05-09T17:32:04.354Z,97938.06
2023-05-09T17:34:32.435Z,97942.91
2023-05-09T17:37:01.949Z,97940.03
2023-05-09T17:39:32.565Z,97968.50
2023-05-09T17:42:00.924Z,97977.94
2023-05-09T17:44:30.184Z,97980.38
2023-05-09T17:46:58.864Z,97982.78
2023-05-09T17:49:27.743Z,97984.75
2023-05-09T17:51:56.348Z,97991.84
2023-05-09T17:54:24.736Z,97992.56
2023-05-09T17:56:58.930Z,97993.09
2023-05-09T17:59:27.033Z,97997.38
2023-05-09T18:01:57.839Z,98000.72
2023-05-09T18:04:31.900Z,98006.34
2023-05-09T18:07:04.140Z,97999.09
2023-05-09T18:09:40.532Z,97998.72
2023-05-09T18:12:13.496Z,97987.19
2023-05-09T18:14:47.724Z,97993.63
2023-05-09T18:17:17.258Z,97994.44
2023-05-09T18:19:45.777Z,97996.75
2023-05-09T18:22:15.704Z,97997.53
2023-05-09T18:24:44.916Z,97999.63
2023-05-09T18:27:15.425Z,97994.09
2023-05-09T18:29:45.251Z,97997.97
2023-05-09T18:32:14.070Z,97993.63
2023-05-09T18:34:48.405Z,98000.44
2023-05-09T18:37:17.046Z,98005.38
2023-05-09T18:39:48.929Z,98010.72
2023-05-09T18:42:17.014Z,98012.09
2023-05-09T18:44:46.069Z,98015.41
2023-05-09T18:47:15.319Z,98009.28
2023-05-09T18:49:43.470Z,98002.47
2023-05-09T18:52:12.962Z,98012.84
2023-05-09T18:54:41.180Z,98010.94
2023-05-09T18:57:09.962Z,98012.47
2023-05-09T18:59:40.683Z,98010.34
2023-05-09T19:02:09.056Z,98015.72
2023-05-09T19:04:36.959Z,98017.50
2023-05-09T19:07:04.811Z,98019.38
2023-05-09T19:09:34.035Z,98014.47
2023-05-09T19:12:05.035Z,98020.34
2023-05-09T19:14:33.143Z,98017.03
2023-05-09T19:17:01.022Z,98031.19
2023-05-09T19:19:28.909Z,98019.38
2023-05-09T19:21:57.047Z,98019.44
2023-05-09T19:24:24.866Z,98033.09
2023-05-09T19:26:54.171Z,98028.59
2023-05-09T19:29:22.050Z,98025.69
2023-05-09T19:31:50.047Z,98039.97
2023-05-09T19:34:17.926Z,98031.69
2023-05-09T19:36:45.691Z,98037.75
2023-05-09T19:39:13.679Z,98039.50
2023-05-09T19:41:42.002Z,98045.56
2023-05-09T19:44:11.203Z,98046.28
2023-05-09T19:46:42.928Z,98038.53
2023-05-09T19:49:11.103Z,98036.63
2023-05-09T19:51:39.347Z,98043.81
2023-05-09T19:54:07.256Z,98037.00
2023-05-09T19:56:35.195Z,98042.47
2023-05-09T19:59:03.065Z,98045.00
2023-05-09T20:01:32.251Z,98037.94
2023-05-09T20:04:00.337Z,98039.47
2023-05-09T20:06:30.617Z,98041.75
2023-05-09T20:08:58.459Z,98037.72
2023-05-09T20:11:27.474Z,98043.16
2023-05-09T20:13:57.658Z,98039.78
2023-05-09T20:16:25.504Z,98037.56
2023-05-09T20:18:55.086Z,98039.44
2023-05-09T20:21:22.900Z,98031.53
2023-05-09T20:23:50.840Z,98028.72
2023-05-09T20:26:18.560Z,98028.38
2023-05-09T20:28:46.441Z,98038.41
2023-05-09T20:31:16.557Z,98038.88
2023-05-09T20:33:44.341Z,98039.47
2023-05-09T20:36:13.539Z,98034.84
2023-05-09T20:38:41.349Z,98036.97
2023-05-09T20:41:09.280Z,98037.16
2023-05-09T20:43:37.416Z,98035.53
2023-05-09T20:46:05.395Z,98039.81
2023-05-09T20:48:33.237Z,98042.28
2023-05-09T20:51:01.056Z,98043.97
2023-05-09T20:53:32.292Z,98036.75
2023-05-09T20:56:00.286Z,98038.66
2023-05-09T20:58:31.161Z,98037.16
2023-05-09T21:00:59.181Z,98039.38
2023-05-09T21:03:27.302Z,98037.19
2023-05-09T21:05:55.592Z,98034.84
2023-05-09T21:08:24.111Z,98032.06
2023-05-09T21:10:54.313Z,98030.72
2023-05-09T21:13:22.391Z,98025.72
2023-05-09T21:15:52.529Z,98023.03
2023-05-09T21:18:20.959Z,98023.72
2023-05-09T21:20:48.814Z,98028.03
2023-05-09T21:23:18.415Z,98025.72
2023-05-09T21:25:46.251Z,98022.22
2023-05-09T21:28:15.621Z,98020.03
2023-05-09T21:30:43.391Z,98026.22
2023-05-09T21:33:11.308Z,98014.34
2023-05-09T21:35:39.164Z,98014.03
2023-05-09T21:38:06.972Z,98007.84
2023-05-09T21:40:34.825Z,98016.75
2023-05-09T21:43:03.487Z,98017.44
2023-05-09T21:45:32.662Z,98007.91
2023-05-09T21:48:00.610Z,98018.75
2023-05-09T21:50:28.579Z,98010.25
2023-05-09T21:52:57.107Z,98008.03
2023-05-09T21:55:25.052Z,98009.41
2023-05-09T21:57:52.869Z,98014.72
2023-05-09T22:00:21.011Z,98015.22
2023-05-09T22:02:50.556Z,98005.84
2023-05-09T22:05:43.389Z,98003.00
2023-05-09T22:08:11.281Z,98010.38
2023-05-09T22:10:39.088Z,98013.06
2023-05-09T22:13:06.840Z,98018.06
2023-05-09T22:15:34.704Z,98013.25
2023-05-09T22:18:03.966Z,98015.25
2023-05-09T22:20:31.778Z,98019.72
2023-05-09T22:22:59.551Z,98018.88
2023-05-09T22:25:27.502Z,98021.06
2023-05-09T22:27:55.341Z,98028.94
2023-05-09T22:30:24.106Z,98030.41
2023-05-09T22:32:52.167Z,98017.34
2023-05-09T22:35:21.361Z,98023.91
2023-05-09T22:37:49.168Z,98018.75
2023-05-09T22:40:17.488Z,98020.03
2023-05-09T22:42:45.473Z,98024.59
2023-05-09T22:45:15.396Z,98016.09
2023-05-09T22:47:43.474Z,98021.41
2023-05-09T22:50:11.832Z,98020.13
2023-05-09T22:52:41.482Z,98023.44
2023-05-09T22:55:09.958Z,98017.75
2023-05-09T22:57:37.705Z,98016.06
2023-05-09T23:00:06.747Z,98025.75
2023-05-09T23:02:34.739Z,98027.44
2023-05-09T23:05:02.710Z,98023.44
2023-05-09T23:07:30.909Z,98029.28
2023-05-09T23:10:00.223Z,98019.75
2023-05-09T23:12:28.008Z,98025.94
2023-05-09T23:14:55.857Z,98021.13
2023-05-09T23:17:23.722Z,98027.94
2023-05-09T23:19:51.525Z,98026.28
2023-05-09T23:22:19.440Z,98026.13
2023-05-09T23:24:47.514Z,98024.25
2023-05-09T23:27:16.802Z,98026.78
2023-05-09T23:29:44.611Z,98035.09
2023-05-09T23:32:12.771Z,98024.44
2023-05-09T23:34:42.645Z,98021.44
2023-05-09T23:37:10.337Z,98017.75
2023-05-09T23:39:38.092Z,98018.41
2023-05-09T23:42:05.999Z,98022.38
2023-05-09T23:44:35.347Z,98020.41
2023-05-09T23:47:03.638Z,98029.09
2023-05-09T23:49:31.482Z,98031.41
2023-05-09T23:51:59.279Z,98040.25
2023-05-09T23:54:27.103Z,98040.63
2023-05-09T23:56:56.343Z,98032.31
2023-05-09T23:59:24.150Z,98034.81
